sensor_id;sensor_type;location;lat;lon;timestamp;pressure;altitude;pressure_sealevel;temperature
77331;BMP280;66405;48.328;7.820;2023-03-07T00:02:09;98908.81;;;5.10
77331;BMP280;66405;48.328;7.820;2023-03-07T00:04:34;98906.91;;;5.11
77331;BMP280;66405;48.328;7.820;2023-03-07T00:07:00;98908.41;;;5.12
77331;BMP280;66405;48.328;7.820;2023-03-07T00:09:26;98908.41;;;5.12
77331;BMP280;66405;48.328;7.820;2023-03-07T00:11:51;98911.50;;;5.10
77331;BMP280;66405;48.328;7.820;2023-03-07T00:14:17;98910.75;;;5.10
77331;BMP280;66405;48.328;7.820;2023-03-07T00:16:42;98911.84;;;5.12
77331;BMP280;66405;48.328;7.820;2023-03-07T00:19:08;98905.31;;;5.13
77331;BMP280;66405;48.328;7.820;2023-03-07T00:21:34;98906.81;;;5.14
77331;BMP280;66405;48.328;7.820;2023-03-07T00:23:59;98901.47;;;5.14
77331;BMP280;66405;48.328;7.820;2023-03-07T00:26:26;98898.03;;;5.14
77331;BMP280;66405;48.328;7.820;2023-03-07T00:28:53;98904.13;;;5.14
77331;BMP280;66405;48.328;7.820;2023-03-07T00:31:19;98894.59;;;5.13
77331;BMP280;66405;48.328;7.820;2023-03-07T00:33:45;98895.38;;;5.14
77331;BMP280;66405;48.328;7.820;2023-03-07T00:36:16;98888.81;;;5.15
77331;BMP280;66405;48.328;7.820;2023-03-07T00:38:43;98880.78;;;5.15
77331;BMP280;66405;48.328;7.820;2023-03-07T00:41:14;98886.13;;;5.15
77331;BMP280;66405;48.328;7.820;2023-03-07T00:43:40;98891.06;;;5.16
77331;BMP280;66405;48.328;7.820;2023-03-07T00:46:06;98881.09;;;5.17
77331;BMP280;66405;48.328;7.820;2023-03-07T00:48:34;98886.75;;;5.19
77331;BMP280;66405;48.328;7.820;2023-03-07T00:51:00;98885.59;;;5.20
77331;BMP280;66405;48.328;7.820;2023-03-07T00:53:25;98880.56;;;5.22
77331;BMP280;66405;48.328;7.820;2023-03-07T00:56:15;98876.72;;;5.23
77331;BMP280;66405;48.328;7.820;2023-03-07T00:58:43;98882.06;;;5.23
77331;BMP280;66405;48.328;7.820;2023-03-07T01:01:10;98875.84;;;5.26
77331;BMP280;66405;48.328;7.820;2023-03-07T01:03:36;98878.13;;;5.28
77331;BMP280;66405;48.328;7.820;2023-03-07T01:06:11;98875.44;;;5.28
77331;BMP280;66405;48.328;7.820;2023-03-07T01:08:37;98872.00;;;5.27
77331;BMP280;66405;48.328;7.820;2023-03-07T01:11:04;98866.63;;;5.27
77331;BMP280;66405;48.328;7.820;2023-03-07T01:13:30;98859.38;;;5.28
77331;BMP280;66405;48.328;7.820;2023-03-07T01:16:09;98865.78;;;5.30
77331;BMP280;66405;48.328;7.820;2023-03-07T01:18:35;98864.63;;;5.31
77331;BMP280;66405;48.328;7.820;2023-03-07T01:21:01;98865.34;;;5.32
77331;BMP280;66405;48.328;7.820;2023-03-07T01:23:26;98853.78;;;5.35
77331;BMP280;66405;48.328;7.820;2023-03-07T01:25:52;98861.84;;;5.35
77331;BMP280;66405;48.328;7.820;2023-03-07T01:28:18;98859.16;;;5.35
77331;BMP280;66405;48.328;7.820;2023-03-07T01:30:43;98851.84;;;5.35
77331;BMP280;66405;48.328;7.820;2023-03-07T01:33:09;98851.84;;;5.35
77331;BMP280;66405;48.328;7.820;2023-03-07T01:35:38;98850.66;;;5.36
77331;BMP280;66405;48.328;7.820;2023-03-07T01:38:04;98842.63;;;5.36
77331;BMP280;66405;48.328;7.820;2023-03-07T01:40:31;98842.19;;;5.38
77331;BMP280;66405;48.328;7.820;2023-03-07T01:43:28;98848.31;;;5.38
77331;BMP280;66405;48.328;7.820;2023-03-07T01:46:24;98841.31;;;5.41
77331;BMP280;66405;48.328;7.820;2023-03-07T01:48:59;98834.06;;;5.42
77331;BMP280;66405;48.328;7.820;2023-03-07T01:51:27;98838.25;;;5.43
77331;BMP280;66405;48.328;7.820;2023-03-07T01:53:54;98824.41;;;5.44
77331;BMP280;66405;48.328;7.820;2023-03-07T01:56:20;98823.97;;;5.46
77331;BMP280;66405;48.328;7.820;2023-03-07T01:58:46;98815.94;;;5.46
77331;BMP280;66405;48.328;7.820;2023-03-07T02:01:12;98816.69;;;5.46
77331;BMP280;66405;48.328;7.820;2023-03-07T02:03:43;98807.88;;;5.46
77331;BMP280;66405;48.328;7.820;2023-03-07T02:06:11;98811.34;;;5.46
77331;BMP280;66405;48.328;7.820;2023-03-07T02:08:37;98809.84;;;5.45
77331;BMP280;66405;48.328;7.820;2023-03-07T02:11:04;98807.16;;;5.45
77331;BMP280;66405;48.328;7.820;2023-03-07T02:13:30;98801.34;;;5.47
77331;BMP280;66405;48.328;7.820;2023-03-07T02:15:58;98799.00;;;5.49
77331;BMP280;66405;48.328;7.820;2023-03-07T02:18:27;98807.03;;;5.49
77331;BMP280;66405;48.328;7.820;2023-03-07T02:26:22;98786.06;;;5.47
77331;BMP280;66405;48.328;7.820;2023-03-07T02:28:51;98788.28;;;5.49
77331;BMP280;66405;48.328;7.820;2023-03-07T02:31:17;98784.84;;;5.48
77331;BMP280;66405;48.328;7.820;2023-03-07T02:33:42;98777.25;;;5.47
77331;BMP280;66405;48.328;7.820;2023-03-07T02:36:25;98771.56;;;5.45
77331;BMP280;66405;48.328;7.820;2023-03-07T02:39:02;98773.81;;;5.46
77331;BMP280;66405;48.328;7.820;2023-03-07T02:41:33;98782.59;;;5.47
77331;BMP280;66405;48.328;7.820;2023-03-07T02:44:02;98774.25;;;5.45
77331;BMP280;66405;48.328;7.820;2023-03-07T02:46:28;98773.06;;;5.46
77331;BMP280;66405;48.328;7.820;2023-03-07T02:48:53;98771.16;;;5.46
77331;BMP280;66405;48.328;7.820;2023-03-07T02:51:19;98762.34;;;5.46
77331;BMP280;66405;48.328;7.820;2023-03-07T02:53:45;98766.19;;;5.45
77331;BMP280;66405;48.328;7.820;2023-03-07T02:56:12;98771.56;;;5.45
77331;BMP280;66405;48.328;7.820;2023-03-07T02:58:39;98769.66;;;5.45
77331;BMP280;66405;48.328;7.820;2023-03-07T03:01:04;98765.47;;;5.44
77331;BMP280;66405;48.328;7.820;2023-03-07T03:03:30;98760.09;;;5.44
77331;BMP280;66405;48.328;7.820;2023-03-07T03:05:56;98766.63;;;5.43
77331;BMP280;66405;48.328;7.820;2023-03-07T03:08:22;98766.63;;;5.43
77331;BMP280;66405;48.328;7.820;2023-03-07T03:10:52;98759.34;;;5.44
77331;BMP280;66405;48.328;7.820;2023-03-07T03:13:19;98760.84;;;5.45
77331;BMP280;66405;48.328;7.820;2023-03-07T03:15:45;98763.53;;;5.45
77331;BMP280;66405;48.328;7.820;2023-03-07T03:18:10;98756.25;;;5.45
77331;BMP280;66405;48.328;7.820;2023-03-07T03:20:40;98752.81;;;5.45
77331;BMP280;66405;48.328;7.820;2023-03-07T03:23:06;98750.13;;;5.45
77331;BMP280;66405;48.328;7.820;2023-03-07T03:25:32;98752.06;;;5.44
77331;BMP280;66405;48.328;7.820;2023-03-07T03:27:57;98748.22;;;5.45
77331;BMP280;66405;48.328;7.820;2023-03-07T03:30:25;98744.75;;;5.45
77331;BMP280;66405;48.328;7.820;2023-03-07T03:32:52;98744.47;;;5.43
77331;BMP280;66405;48.328;7.820;2023-03-07T03:35:18;98747.56;;;5.41
77331;BMP280;66405;48.328;7.820;2023-03-07T03:37:45;98743.38;;;5.40
77331;BMP280;66405;48.328;7.820;2023-03-07T03:40:11;98743.38;;;5.40
77331;BMP280;66405;48.328;7.820;2023-03-07T03:42:40;98737.28;;;5.39
77331;BMP280;66405;48.328;7.820;2023-03-07T03:45:07;98738.47;;;5.38
77331;BMP280;66405;48.328;7.820;2023-03-07T03:47:33;98733.53;;;5.37
77331;BMP280;66405;48.328;7.820;2023-03-07T03:49:59;98739.97;;;5.39
77331;BMP280;66405;48.328;7.820;2023-03-07T03:52:24;98736.09;;;5.40
77331;BMP280;66405;48.328;7.820;2023-03-07T03:54:50;98736.84;;;5.41
77331;BMP280;66405;48.328;7.820;2023-03-07T03:57:16;98734.94;;;5.42
77331;BMP280;66405;48.328;7.820;2023-03-07T03:59:45;98728.41;;;5.43
77331;BMP280;66405;48.328;7.820;2023-03-07T04:02:12;98728.41;;;5.43
77331;BMP280;66405;48.328;7.820;2023-03-07T04:04:38;98729.56;;;5.42
77331;BMP280;66405;48.328;7.820;2023-03-07T04:07:04;98724.22;;;5.42
77331;BMP280;66405;48.328;7.820;2023-03-07T04:09:30;98721.53;;;5.42
77331;BMP280;66405;48.328;7.820;2023-03-07T04:11:56;98725.38;;;5.40
77331;BMP280;66405;48.328;7.820;2023-03-07T04:14:22;98715.41;;;5.41
77331;BMP280;66405;48.328;7.820;2023-03-07T04:16:48;98712.00;;;5.40
77331;BMP280;66405;48.328;7.820;2023-03-07T04:19:13;98717.34;;;5.40
77331;BMP280;66405;48.328;7.820;2023-03-07T04:21:41;98700.50;;;5.40
77331;BMP280;66405;48.328;7.820;2023-03-07T04:24:07;98704.69;;;5.41
77331;BMP280;66405;48.328;7.820;2023-03-07T04:26:34;98709.00;;;5.38
77331;BMP280;66405;48.328;7.820;2023-03-07T04:29:00;98696.03;;;5.37
77331;BMP280;66405;48.328;7.820;2023-03-07T04:31:32;98692.59;;;5.36
77331;BMP280;66405;48.328;7.820;2023-03-07T04:34:00;98687.22;;;5.36
77331;BMP280;66405;48.328;7.820;2023-03-07T04:36:26;98691.84;;;5.36
77331;BMP280;66405;48.328;7.820;2023-03-07T04:38:51;98689.19;;;5.36
77331;BMP280;66405;48.328;7.820;2023-03-07T04:41:23;98689.91;;;5.36
77331;BMP280;66405;48.328;7.820;2023-03-07T04:43:55;98689.19;;;5.36
77331;BMP280;66405;48.328;7.820;2023-03-07T04:46:22;98687.72;;;5.35
77331;BMP280;66405;48.328;7.820;2023-03-07T04:48:48;98670.88;;;5.34
77331;BMP280;66405;48.328;7.820;2023-03-07T04:51:14;98677.00;;;5.35
77331;BMP280;66405;48.328;7.820;2023-03-07T04:53:40;98686.19;;;5.34
77331;BMP280;66405;48.328;7.820;2023-03-07T04:56:07;98685.75;;;5.35
77331;BMP280;66405;48.328;7.820;2023-03-07T04:58:35;98683.81;;;5.36
77331;BMP280;66405;48.328;7.820;2023-03-07T05:01:02;98683.09;;;5.35
77331;BMP280;66405;48.328;7.820;2023-03-07T05:03:27;98688.88;;;5.34
77331;BMP280;66405;48.328;7.820;2023-03-07T05:05:53;98692.31;;;5.34
77331;BMP280;66405;48.328;7.820;2023-03-07T05:08:20;98688.44;;;5.35
77331;BMP280;66405;48.328;7.820;2023-03-07T05:10:47;98689.63;;;5.34
77331;BMP280;66405;48.328;7.820;2023-03-07T05:13:12;98679.66;;;5.35
77331;BMP280;66405;48.328;7.820;2023-03-07T05:15:38;98682.34;;;5.35
77331;BMP280;66405;48.328;7.820;2023-03-07T05:18:04;98675.50;;;5.34
77331;BMP280;66405;48.328;7.820;2023-03-07T05:20:31;98681.59;;;5.34
77331;BMP280;66405;48.328;7.820;2023-03-07T05:22:58;98677.00;;;5.35
77331;BMP280;66405;48.328;7.820;2023-03-07T05:25:23;98674.59;;;5.37
77331;BMP280;66405;48.328;7.820;2023-03-07T05:27:49;98677.28;;;5.37
77331;BMP280;66405;48.328;7.820;2023-03-07T05:30:15;98676.53;;;5.36
77331;BMP280;66405;48.328;7.820;2023-03-07T05:32:43;98677.72;;;5.35
77331;BMP280;66405;48.328;7.820;2023-03-07T05:35:11;98664.78;;;5.34
77331;BMP280;66405;48.328;7.820;2023-03-07T05:37:40;98659.41;;;5.34
77331;BMP280;66405;48.328;7.820;2023-03-07T05:40:09;98657.47;;;5.34
77331;BMP280;66405;48.328;7.820;2023-03-07T05:42:38;98658.69;;;5.33
77331;BMP280;66405;48.328;7.820;2023-03-07T05:45:07;98651.06;;;5.32
77331;BMP280;66405;48.328;7.820;2023-03-07T05:47:33;98656.41;;;5.32
77331;BMP280;66405;48.328;7.820;2023-03-07T05:49:59;98661.03;;;5.31
77331;BMP280;66405;48.328;7.820;2023-03-07T05:52:26;98652.22;;;5.31
77331;BMP280;66405;48.328;7.820;2023-03-07T05:54:59;98650.72;;;5.30
77331;BMP280;66405;48.328;7.820;2023-03-07T05:57:24;98655.34;;;5.29
77331;BMP280;66405;48.328;7.820;2023-03-07T05:59:50;98647.75;;;5.28
77331;BMP280;66405;48.328;7.820;2023-03-07T06:02:16;98661.88;;;5.28
77331;BMP280;66405;48.328;7.820;2023-03-07T06:04:42;98661.88;;;5.28
77331;BMP280;66405;48.328;7.820;2023-03-07T06:07:07;98651.19;;;5.28
77331;BMP280;66405;48.328;7.820;2023-03-07T06:09:33;98652.69;;;5.29
77331;BMP280;66405;48.328;7.820;2023-03-07T06:11:59;98651.94;;;5.29
77331;BMP280;66405;48.328;7.820;2023-03-07T06:14:25;98655.34;;;5.29
77331;BMP280;66405;48.328;7.820;2023-03-07T06:16:50;98654.91;;;5.31
77331;BMP280;66405;48.328;7.820;2023-03-07T06:19:16;98662.22;;;5.30
77331;BMP280;66405;48.328;7.820;2023-03-07T06:21:43;98661.03;;;5.31
77331;BMP280;66405;48.328;7.820;2023-03-07T06:24:08;98649.16;;;5.32
77331;BMP280;66405;48.328;7.820;2023-03-07T06:26:34;98657.91;;;5.33
77331;BMP280;66405;48.328;7.820;2023-03-07T06:29:00;98656.75;;;5.34
77331;BMP280;66405;48.328;7.820;2023-03-07T06:31:26;98657.78;;;5.36
77331;BMP280;66405;48.328;7.820;2023-03-07T06:33:52;98659.72;;;5.36
77331;BMP280;66405;48.328;7.820;2023-03-07T06:36:20;98652.41;;;5.36
77331;BMP280;66405;48.328;7.820;2023-03-07T06:38:51;98657.34;;;5.38
77331;BMP280;66405;48.328;7.820;2023-03-07T06:41:19;98648.09;;;5.39
77331;BMP280;66405;48.328;7.820;2023-03-07T06:43:45;98648.88;;;5.39
77331;BMP280;66405;48.328;7.820;2023-03-07T06:46:11;98644.56;;;5.42
77331;BMP280;66405;48.328;7.820;2023-03-07T06:48:42;98642.66;;;5.43
77331;BMP280;66405;48.328;7.820;2023-03-07T06:51:12;98631.06;;;5.46
77331;BMP280;66405;48.328;7.820;2023-03-07T06:53:40;98643.59;;;5.49
77331;BMP280;66405;48.328;7.820;2023-03-07T06:56:06;98639.59;;;5.53
77331;BMP280;66405;48.328;7.820;2023-03-07T06:58:32;98639.78;;;5.59
77331;BMP280;66405;48.328;7.820;2023-03-07T07:00:58;98638.03;;;5.65
77331;BMP280;66405;48.328;7.820;2023-03-07T07:03:25;98633.63;;;5.71
77331;BMP280;66405;48.328;7.820;2023-03-07T07:05:50;98644.50;;;5.77
77331;BMP280;66405;48.328;7.820;2023-03-07T07:08:16;98637.09;;;5.81
77331;BMP280;66405;48.328;7.820;2023-03-07T07:10:41;98642.63;;;5.87
77331;BMP280;66405;48.328;7.820;2023-03-07T07:13:09;98642.81;;;5.93
77331;BMP280;66405;48.328;7.820;2023-03-07T07:15:37;98635.09;;;5.95
77331;BMP280;66405;48.328;7.820;2023-03-07T07:18:04;98637.00;;;5.94
77331;BMP280;66405;48.328;7.820;2023-03-07T07:20:32;98640.44;;;5.95
77331;BMP280;66405;48.328;7.820;2023-03-07T07:23:00;98639.38;;;5.92
77331;BMP280;66405;48.328;7.820;2023-03-07T07:25:27;98640.13;;;5.93
77331;BMP280;66405;48.328;7.820;2023-03-07T07:27:52;98645.81;;;5.95
77331;BMP280;66405;48.328;7.820;2023-03-07T07:30:18;98647.31;;;5.96
77331;BMP280;66405;48.328;7.820;2023-03-07T07:32:45;98656.41;;;5.98
77331;BMP280;66405;48.328;7.820;2023-03-07T07:35:10;98642.09;;;6.01
77331;BMP280;66405;48.328;7.820;2023-03-07T07:37:36;98650.31;;;6.07
77331;BMP280;66405;48.328;7.820;2023-03-07T07:40:03;98657.03;;;6.12
77331;BMP280;66405;48.328;7.820;2023-03-07T07:42:29;98647.50;;;6.11
77331;BMP280;66405;48.328;7.820;2023-03-07T07:45:08;98657.50;;;6.10
77331;BMP280;66405;48.328;7.820;2023-03-07T07:47:34;98657.19;;;6.08
77331;BMP280;66405;48.328;7.820;2023-03-07T07:49:59;98647.22;;;6.09
77331;BMP280;66405;48.328;7.820;2023-03-07T07:52:26;98653.75;;;6.08
77331;BMP280;66405;48.328;7.820;2023-03-07T07:54:51;98648.72;;;6.10
77331;BMP280;66405;48.328;7.820;2023-03-07T07:57:17;98647.09;;;6.12
77331;BMP280;66405;48.328;7.820;2023-03-07T07:59:43;98648.44;;;6.17
77331;BMP280;66405;48.328;7.820;2023-03-07T08:02:11;98659.03;;;6.20
77331;BMP280;66405;48.328;7.820;2023-03-07T08:04:40;98660.22;;;6.19
77331;BMP280;66405;48.328;7.820;2023-03-07T08:07:08;98656.03;;;6.18
77331;BMP280;66405;48.328;7.820;2023-03-07T08:09:33;98655.28;;;6.18
77331;BMP280;66405;48.328;7.820;2023-03-07T08:12:01;98656.47;;;6.17
77331;BMP280;66405;48.328;7.820;2023-03-07T08:14:29;98649.16;;;6.17
77331;BMP280;66405;48.328;7.820;2023-03-07T08:16:54;98651.09;;;6.17
77331;BMP280;66405;48.328;7.820;2023-03-07T08:19:19;98655.28;;;6.18
77331;BMP280;66405;48.328;7.820;2023-03-07T08:21:45;98664.38;;;6.20
77331;BMP280;66405;48.328;7.820;2023-03-07T08:24:12;98655.16;;;6.21
77331;BMP280;66405;48.328;7.820;2023-03-07T08:26:38;98653.84;;;6.26
77331;BMP280;66405;48.328;7.820;2023-03-07T08:29:04;98652.19;;;6.29
77331;BMP280;66405;48.328;7.820;2023-03-07T08:31:30;98638.94;;;6.34
77331;BMP280;66405;48.328;7.820;2023-03-07T08:33:55;98640.63;;;6.41
77331;BMP280;66405;48.328;7.820;2023-03-07T08:36:21;98640.34;;;6.48
77331;BMP280;66405;48.328;7.820;2023-03-07T08:38:48;98630.22;;;6.52
77331;BMP280;66405;48.328;7.820;2023-03-07T08:41:18;98634.25;;;6.57
77331;BMP280;66405;48.328;7.820;2023-03-07T08:43:45;98624.41;;;6.63
77331;BMP280;66405;48.328;7.820;2023-03-07T08:46:11;98627.56;;;6.71
77331;BMP280;66405;48.328;7.820;2023-03-07T08:48:36;98629.66;;;6.76
77331;BMP280;66405;48.328;7.820;2023-03-07T08:51:07;98624.41;;;6.82
77331;BMP280;66405;48.328;7.820;2023-03-07T08:53:33;98620.84;;;6.85
77331;BMP280;66405;48.328;7.820;2023-03-07T08:55:59;98613.84;;;6.87
77331;BMP280;66405;48.328;7.820;2023-03-07T08:58:24;98617.56;;;6.90
77331;BMP280;66405;48.328;7.820;2023-03-07T09:00:50;98612.34;;;6.96
77331;BMP280;66405;48.328;7.820;2023-03-07T09:03:15;98615.66;;;7.00
77331;BMP280;66405;48.328;7.820;2023-03-07T09:05:41;98614.75;;;7.03
77331;BMP280;66405;48.328;7.820;2023-03-07T09:08:07;98609.97;;;7.07
77331;BMP280;66405;48.328;7.820;2023-03-07T09:10:34;98598.59;;;7.12
77331;BMP280;66405;48.328;7.820;2023-03-07T09:12:59;98613.97;;;7.21
77331;BMP280;66405;48.328;7.820;2023-03-07T09:15:25;98608.63;;;7.30
77331;BMP280;66405;48.328;7.820;2023-03-07T09:17:52;98615.16;;;7.39
77331;BMP280;66405;48.328;7.820;2023-03-07T09:20:18;98613.50;;;7.41
77331;BMP280;66405;48.328;7.820;2023-03-07T09:22:44;98611.28;;;7.40
77331;BMP280;66405;48.328;7.820;2023-03-07T09:25:11;98613.50;;;7.41
77331;BMP280;66405;48.328;7.820;2023-03-07T09:27:36;98613.81;;;7.43
77331;BMP280;66405;48.328;7.820;2023-03-07T09:30:04;98614.41;;;7.47
77331;BMP280;66405;48.328;7.820;2023-03-07T09:32:32;98610.66;;;7.54
77331;BMP280;66405;48.328;7.820;2023-03-07T09:35:00;98610.94;;;7.56
77331;BMP280;66405;48.328;7.820;2023-03-07T09:37:25;98609.44;;;7.55
77331;BMP280;66405;48.328;7.820;2023-03-07T09:39:51;98606.50;;;7.53
77331;BMP280;66405;48.328;7.820;2023-03-07T09:48:02;98604.53;;;7.53
77331;BMP280;66405;48.328;7.820;2023-03-07T09:50:54;98597.78;;;7.58
77331;BMP280;66405;48.328;7.820;2023-03-07T09:53:36;98593.00;;;7.62
77331;BMP280;66405;48.328;7.820;2023-03-07T09:56:05;98590.59;;;7.64
77331;BMP280;66405;48.328;7.820;2023-03-07T09:58:34;98594.50;;;7.63
77331;BMP280;66405;48.328;7.820;2023-03-07T10:01:04;98584.03;;;7.65
77331;BMP280;66405;48.328;7.820;2023-03-07T10:06:26;98590.13;;;7.75
77331;BMP280;66405;48.328;7.820;2023-03-07T10:08:56;98591.16;;;7.78
77331;BMP280;66405;48.328;7.820;2023-03-07T10:17:28;98584.81;;;7.99
77331;BMP280;66405;48.328;7.820;2023-03-07T10:20:18;98584.16;;;8.05
77331;BMP280;66405;48.328;7.820;2023-03-07T10:23:05;98578.34;;;8.06
77331;BMP280;66405;48.328;7.820;2023-03-07T10:25:52;98580.09;;;8.09
77331;BMP280;66405;48.328;7.820;2023-03-07T10:28:29;98587.38;;;8.18
77331;BMP280;66405;48.328;7.820;2023-03-07T10:31:00;98579.16;;;8.22
77331;BMP280;66405;48.328;7.820;2023-03-07T10:33:26;98579.72;;;8.26
77331;BMP280;66405;48.328;7.820;2023-03-07T10:36:02;98590.75;;;8.28
77331;BMP280;66405;48.328;7.820;2023-03-07T10:38:50;98582.41;;;8.26
77331;BMP280;66405;48.328;7.820;2023-03-07T10:41:20;98582.41;;;8.26
77331;BMP280;66405;48.328;7.820;2023-03-07T10:43:48;98580.66;;;8.23
77331;BMP280;66405;48.328;7.820;2023-03-07T10:46:16;98584.63;;;8.27
77331;BMP280;66405;48.328;7.820;2023-03-07T10:54:14;98581.03;;;8.30
77331;BMP280;66405;48.328;7.820;2023-03-07T10:57:11;98590.16;;;8.33
77331;BMP280;66405;48.328;7.820;2023-03-07T10:59:38;98581.03;;;8.30
77331;BMP280;66405;48.328;7.820;2023-03-07T11:02:42;98575.75;;;8.36
77331;BMP280;66405;48.328;7.820;2023-03-07T11:07:49;98571.84;;;8.37
77331;BMP280;66405;48.328;7.820;2023-03-07T11:10:38;98570.66;;;8.38
77331;BMP280;66405;48.328;7.820;2023-03-07T11:13:18;98577.53;;;8.39
77331;BMP280;66405;48.328;7.820;2023-03-07T11:15:44;98575.31;;;8.38
77331;BMP280;66405;48.328;7.820;2023-03-07T11:18:39;98574.28;;;8.35
77331;BMP280;66405;48.328;7.820;2023-03-07T11:21:25;98572.81;;;8.34
77331;BMP280;66405;48.328;7.820;2023-03-07T11:24:05;98567.13;;;8.32
77331;BMP280;66405;48.328;7.820;2023-03-07T11:26:41;98569.06;;;8.31
77331;BMP280;66405;48.328;7.820;2023-03-07T11:34:25;98567.66;;;8.36
77331;BMP280;66405;48.328;7.820;2023-03-07T11:37:41;98563.50;;;8.35
77331;BMP280;66405;48.328;7.820;2023-03-07T11:42:35;98548.50;;;8.43
77331;BMP280;66405;48.328;7.820;2023-03-07T11:50:53;98534.19;;;8.76
77331;BMP280;66405;48.328;7.820;2023-03-07T11:53:40;98536.78;;;8.85
77331;BMP280;66405;48.328;7.820;2023-03-07T11:56:28;98517.84;;;8.95
77331;BMP280;66405;48.328;7.820;2023-03-07T12:01:50;98508.19;;;9.39
77331;BMP280;66405;48.328;7.820;2023-03-07T12:13:03;98492.63;;;10.25
77331;BMP280;66405;48.328;7.820;2023-03-07T12:18:19;98495.78;;;11.40
77331;BMP280;66405;48.328;7.820;2023-03-07T12:23:24;98494.25;;;11.88
77331;BMP280;66405;48.328;7.820;2023-03-07T12:25:55;98479.28;;;12.04
77331;BMP280;66405;48.328;7.820;2023-03-07T12:31:14;98463.34;;;12.46
77331;BMP280;66405;48.328;7.820;2023-03-07T12:39:30;98441.88;;;13.63
77331;BMP280;66405;48.328;7.820;2023-03-07T12:42:29;98445.88;;;13.56
77331;BMP280;66405;48.328;7.820;2023-03-07T12:45:10;98435.84;;;13.40
77331;BMP280;66405;48.328;7.820;2023-03-07T12:47:54;98424.78;;;13.80
77331;BMP280;66405;48.328;7.820;2023-03-07T12:56:09;98410.44;;;14.51
77331;BMP280;66405;48.328;7.820;2023-03-07T13:01:17;98408.34;;;14.63
77331;BMP280;66405;48.328;7.820;2023-03-07T13:04:06;98405.81;;;14.65
77331;BMP280;66405;48.328;7.820;2023-03-07T13:06:35;98404.94;;;14.32
77331;BMP280;66405;48.328;7.820;2023-03-07T13:09:04;98410.16;;;13.94
77331;BMP280;66405;48.328;7.820;2023-03-07T13:11:32;98410.41;;;13.90
77331;BMP280;66405;48.328;7.820;2023-03-07T13:24:45;98380.72;;;15.92
77331;BMP280;66405;48.328;7.820;2023-03-07T13:37:53;98393.50;;;17.31
77331;BMP280;66405;48.328;7.820;2023-03-07T13:59:11;98385.59;;;17.62
77331;BMP280;66405;48.328;7.820;2023-03-07T14:01:47;98376.78;;;17.35
77331;BMP280;66405;48.328;7.820;2023-03-07T14:09:54;98385.75;;;18.27
77331;BMP280;66405;48.328;7.820;2023-03-07T14:20:21;98377.22;;;19.58
77331;BMP280;66405;48.328;7.820;2023-03-07T14:25:36;98387.41;;;20.27
77331;BMP280;66405;48.328;7.820;2023-03-07T14:28:21;98390.81;;;20.51
77331;BMP280;66405;48.328;7.820;2023-03-07T14:30:59;98390.47;;;21.45
77331;BMP280;66405;48.328;7.820;2023-03-07T14:33:32;98381.69;;;22.24
77331;BMP280;66405;48.328;7.820;2023-03-07T14:35:59;98372.63;;;22.76
77331;BMP280;66405;48.328;7.820;2023-03-07T14:38:26;98371.72;;;23.38
77331;BMP280;66405;48.328;7.820;2023-03-07T14:41:19;98372.16;;;23.54
77331;BMP280;66405;48.328;7.820;2023-03-07T14:43:56;98385.25;;;24.41
77331;BMP280;66405;48.328;7.820;2023-03-07T14:52:01;98368.88;;;25.37
77331;BMP280;66405;48.328;7.820;2023-03-07T14:54:32;98381.69;;;25.76
77331;BMP280;66405;48.328;7.820;2023-03-07T14:56:59;98374.09;;;25.65
77331;BMP280;66405;48.328;7.820;2023-03-07T14:59:25;98368.09;;;25.47
77331;BMP280;66405;48.328;7.820;2023-03-07T15:01:51;98374.53;;;25.83
77331;BMP280;66405;48.328;7.820;2023-03-07T15:04:26;98368.06;;;26.59
77331;BMP280;66405;48.328;7.820;2023-03-07T15:06:58;98374.38;;;26.94
77331;BMP280;66405;48.328;7.820;2023-03-07T15:09:26;98364.78;;;27.70
77331;BMP280;66405;48.328;7.820;2023-03-07T15:11:54;98370.56;;;28.14
77331;BMP280;66405;48.328;7.820;2023-03-07T15:14:33;98371.38;;;28.03
77331;BMP280;66405;48.328;7.820;2023-03-07T15:17:04;98371.84;;;28.25
77331;BMP280;66405;48.328;7.820;2023-03-07T15:19:45;98363.28;;;28.07
77331;BMP280;66405;48.328;7.820;2023-03-07T15:24:48;98351.22;;;27.51
77331;BMP280;66405;48.328;7.820;2023-03-07T15:27:22;98348.78;;;27.20
77331;BMP280;66405;48.328;7.820;2023-03-07T15:29:51;98348.47;;;26.78
77331;BMP280;66405;48.328;7.820;2023-03-07T15:32:37;98354.84;;;26.57
77331;BMP280;66405;48.328;7.820;2023-03-07T15:37:33;98354.75;;;24.10
77331;BMP280;66405;48.328;7.820;2023-03-07T15:40:22;98363.25;;;22.62
77331;BMP280;66405;48.328;7.820;2023-03-07T15:42:51;98365.00;;;21.52
77331;BMP280;66405;48.328;7.820;2023-03-07T15:45:34;98363.34;;;20.58
77331;BMP280;66405;48.328;7.820;2023-03-07T15:48:24;98365.00;;;19.75
77331;BMP280;66405;48.328;7.820;2023-03-07T15:50:55;98381.56;;;19.23
77331;BMP280;66405;48.328;7.820;2023-03-07T15:53:26;98372.00;;;18.93
77331;BMP280;66405;48.328;7.820;2023-03-07T15:55:58;98371.25;;;18.48
77331;BMP280;66405;48.328;7.820;2023-03-07T15:58:26;98377.88;;;17.74
77331;BMP280;66405;48.328;7.820;2023-03-07T16:03:48;98373.97;;;16.26
77331;BMP280;66405;48.328;7.820;2023-03-07T16:08:57;98375.97;;;15.79
77331;BMP280;66405;48.328;7.820;2023-03-07T16:11:23;98374.19;;;15.50
77331;BMP280;66405;48.328;7.820;2023-03-07T16:13:48;98373.97;;;15.09
77331;BMP280;66405;48.328;7.820;2023-03-07T16:16:22;98386.66;;;14.57
77331;BMP280;66405;48.328;7.820;2023-03-07T16:18:50;98382.78;;;14.17
77331;BMP280;66405;48.328;7.820;2023-03-07T16:21:17;98385.84;;;13.71
77331;BMP280;66405;48.328;7.820;2023-03-07T16:23:43;98394.88;;;13.44
77331;BMP280;66405;48.328;7.820;2023-03-07T16:26:13;98401.28;;;13.46
77331;BMP280;66405;48.328;7.820;2023-03-07T16:28:41;98396.97;;;14.04
77331;BMP280;66405;48.328;7.820;2023-03-07T16:31:10;98402.94;;;14.82
77331;BMP280;66405;48.328;7.820;2023-03-07T16:33:36;98406.91;;;15.63
77331;BMP280;66405;48.328;7.820;2023-03-07T16:36:01;98409.97;;;16.51
77331;BMP280;66405;48.328;7.820;2023-03-07T16:38:27;98420.53;;;17.56
77331;BMP280;66405;48.328;7.820;2023-03-07T16:40:52;98421.84;;;17.84
77331;BMP280;66405;48.328;7.820;2023-03-07T16:43:34;98428.16;;;18.00
77331;BMP280;66405;48.328;7.820;2023-03-07T16:46:02;98427.06;;;17.39
77331;BMP280;66405;48.328;7.820;2023-03-07T16:48:31;98424.91;;;16.31
77331;BMP280;66405;48.328;7.820;2023-03-07T16:50:56;98423.09;;;15.36
77331;BMP280;66405;48.328;7.820;2023-03-07T16:53:22;98434.22;;;14.45
77331;BMP280;66405;48.328;7.820;2023-03-07T16:55:48;98441.06;;;13.80
77331;BMP280;66405;48.328;7.820;2023-03-07T16:58:33;98447.78;;;13.14
77331;BMP280;66405;48.328;7.820;2023-03-07T17:00:59;98434.53;;;12.65